Horatio, South Carolina
Current Conditions -  °F | °C
As of 12:58 PM on Wednesday 28 Jan 2015 (Local Time) from KSSC Reporting Station
Clear Clear  
Wind Chill: 45°   Ceiling: Unl
Heat Index: 45°   Visibility: 10mi
Dew Point: 17°   Wind: 3mph
Humidity: 33%   Direction: NA
Pressure: 30.25"   Gusts: NA
Location:  34.02°N, 80.57°W
Report Text: KSSC 281758Z AUTO VRB03KT 10SM CLR 07/M08 A3025 RMK AO2 SLP247 60000 T00701083 10071 21016 57009 $
Loading
Personal Weather Stations






























Interactive Weather Map New forecast layout! Learn more

10-Day Weather Forecast

Advertisements
Track Severe Weather on mobile